Time;durP1;ratioP1;P1;durP2;ratioP2;P2;SDS_P1;SDS_P2;PMS_P1;PMS_P2;Temp;Humidity;BMP_temperature;BMP_pressure;BME280_temperature;BME280_humidity;BME280_pressure;Samples;Min_cycle;Max_cycle;Signal;HPM_P1;HPM_P2
2023/10/07 00:00:54;;;;;;;12.05;4.13;;;;;;;;;;5093556;28;20044;-66
2023/10/07 00:03:20;;;;;;;14.80;4.28;;;;;;;;;;5088542;28;20379;-66
2023/10/07 00:06:00;;;;;;;16.48;3.65;;;;;;;;;;5093894;28;20103;-66
2023/10/07 00:08:27;;;;;;;17.60;4.57;;;;;;;;;;5090623;28;20047;-67
2023/10/07 00:10:58;;;;;;;12.90;3.97;;;;;;;;;;5089547;28;20036;-66
2023/10/07 00:13:26;;;;;;;15.27;4.05;;;;;;;;;;5089731;28;20526;-66
2023/10/07 00:15:53;;;;;;;13.48;3.67;;;;;;;;;;5094108;28;20035;-66
2023/10/07 00:18:19;;;;;;;15.43;3.95;;;;;;;;;;5087684;28;20055;-66
2023/10/07 00:20:51;;;;;;;15.75;3.88;;;;;;;;;;5094128;28;20036;-66
2023/10/07 00:23:26;;;;;;;14.85;4.30;;;;;;;;;;5093945;28;20514;-66
2023/10/07 00:25:52;;;;;;;21.40;4.38;;;;;;;;;;5093708;28;20177;-66
2023/10/07 00:28:27;;;;;;;12.98;3.60;;;;;;;;;;5090657;28;20053;-66
2023/10/07 00:30:55;;;;;;;13.43;4.35;;;;;;;;;;5091064;28;20487;-66
2023/10/07 00:33:22;;;;;;;10.57;4.03;;;;;;;;;;5093153;28;20075;-66
2023/10/07 00:35:55;;;;;;;15.48;4.70;;;;;;;;;;5092602;28;20483;-66
2023/10/07 00:38:37;;;;;;;18.85;4.47;;;;;;;;;;5087634;28;20123;-66
2023/10/07 00:41:03;;;;;;;14.40;4.22;;;;;;;;;;5094995;28;20079;-67
2023/10/07 00:43:33;;;;;;;13.73;3.83;;;;;;;;;;5110620;28;20051;-67
2023/10/07 00:46:20;;;;;;;13.80;4.40;;;;;;;;;;5076750;28;20039;-67
2023/10/07 00:48:56;;;;;;;17.63;4.70;;;;;;;;;;5092561;28;20051;-67
2023/10/07 00:51:35;;;;;;;17.50;5.07;;;;;;;;;;5092447;28;20035;-66
2023/10/07 00:54:15;;;;;;;15.82;4.30;;;;;;;;;;5093397;28;20075;-66
2023/10/07 00:56:43;;;;;;;14.25;4.28;;;;;;;;;;5095640;28;20043;-67
2023/10/07 00:59:10;;;;;;;17.92;4.38;;;;;;;;;;5092879;28;20039;-67
2023/10/07 01:01:36;;;;;;;15.95;4.60;;;;;;;;;;5100055;28;20092;-67
2023/10/07 01:04:06;;;;;;;15.25;4.30;;;;;;;;;;5091852;28;20042;-67
2023/10/07 01:06:38;;;;;;;15.48;3.92;;;;;;;;;;5110565;28;20049;-67
2023/10/07 01:09:22;;;;;;;14.98;3.97;;;;;;;;;;5092345;28;20043;-67
2023/10/07 01:11:57;;;;;;;12.13;4.45;;;;;;;;;;5090816;28;20050;-66
2023/10/07 01:14:26;;;;;;;15.48;4.75;;;;;;;;;;5092564;28;20040;-66
2023/10/07 01:16:53;;;;;;;15.25;4.57;;;;;;;;;;5092309;28;20495;-67
2023/10/07 01:19:19;;;;;;;13.57;4.13;;;;;;;;;;5092508;28;20050;-66
2023/10/07 01:22:05;;;;;;;13.07;4.05;;;;;;;;;;5109883;28;20039;-66
2023/10/07 01:24:44;;;;;;;14.98;4.55;;;;;;;;;;5089236;28;20453;-66
2023/10/07 01:29:43;;;;;;;15.73;4.40;;;;;;;;;;5092171;28;20043;-66
2023/10/07 01:32:15;;;;;;;15.48;4.63;;;;;;;;;;5091958;28;20077;-66
2023/10/07 01:34:47;;;;;;;18.13;4.60;;;;;;;;;;5091812;28;20527;-66
2023/10/07 01:37:15;;;;;;;15.77;4.65;;;;;;;;;;5090649;28;20083;-67
2023/10/07 01:39:41;;;;;;;11.65;4.38;;;;;;;;;;5109646;28;20036;-67
2023/10/07 01:42:20;;;;;;;18.27;4.40;;;;;;;;;;5093043;28;20051;-66
2023/10/07 01:44:48;;;;;;;14.23;4.40;;;;;;;;;;5077026;28;20115;-67
2023/10/07 01:47:24;;;;;;;14.77;5.13;;;;;;;;;;5091140;28;20047;-67
2023/10/07 01:49:53;;;;;;;17.10;5.15;;;;;;;;;;5108567;28;20035;-67
2023/10/07 01:52:21;;;;;;;14.48;4.93;;;;;;;;;;5106282;28;20044;-66
2023/10/07 01:54:47;;;;;;;12.80;4.32;;;;;;;;;;5092225;28;20452;-66
2023/10/07 01:57:15;;;;;;;15.40;4.50;;;;;;;;;;5105782;28;20069;-67
2023/10/07 01:59:41;;;;;;;12.35;4.78;;;;;;;;;;5108199;28;20463;-66
2023/10/07 02:02:09;;;;;;;17.92;4.95;;;;;;;;;;5084945;28;20142;-66
2023/10/07 02:04:36;;;;;;;16.52;4.95;;;;;;;;;;5089700;28;20047;-67
2023/10/07 02:07:03;;;;;;;16.95;5.18;;;;;;;;;;5087337;28;20448;-67
2023/10/07 02:09:35;;;;;;;14.90;4.80;;;;;;;;;;5106518;28;20043;-67
2023/10/07 02:12:07;;;;;;;14.75;4.82;;;;;;;;;;5090567;28;20040;-67
2023/10/07 02:14:34;;;;;;;15.50;4.68;;;;;;;;;;5089719;28;20047;-66
2023/10/07 02:17:01;;;;;;;19.90;5.65;;;;;;;;;;5110849;28;20511;-67
2023/10/07 02:19:33;;;;;;;13.48;4.78;;;;;;;;;;5091047;28;20039;-66
2023/10/07 02:22:00;;;;;;;19.38;5.53;;;;;;;;;;5089879;28;20035;-66
2023/10/07 02:24:29;;;;;;;15.05;4.60;;;;;;;;;;5110256;28;20491;-66
2023/10/07 02:26:55;;;;;;;16.38;4.93;;;;;;;;;;5073751;28;20036;-67
2023/10/07 02:29:21;;;;;;;17.50;4.80;;;;;;;;;;5093796;28;20035;-67
2023/10/07 02:31:50;;;;;;;14.85;4.72;;;;;;;;;;5094984;28;20122;-67
2023/10/07 02:34:28;;;;;;;17.35;4.90;;;;;;;;;;5095668;28;20552;-66
2023/10/07 02:37:10;;;;;;;14.85;5.10;;;;;;;;;;5095956;28;20039;-66
2023/10/07 02:39:48;;;;;;;14.90;5.40;;;;;;;;;;5093503;28;20407;-66
2023/10/07 02:42:21;;;;;;;16.92;5.22;;;;;;;;;;5093304;28;20075;-66
2023/10/07 02:44:54;;;;;;;18.30;5.28;;;;;;;;;;5095263;28;20044;-66
2023/10/07 02:47:20;;;;;;;23.20;5.45;;;;;;;;;;5091066;28;20518;-66
2023/10/07 02:49:49;;;;;;;15.98;4.78;;;;;;;;;;5097476;28;20043;-66
2023/10/07 02:52:19;;;;;;;14.82;4.97;;;;;;;;;;5094607;28;20045;-66
2023/10/07 02:55:05;;;;;;;13.10;4.50;;;;;;;;;;5094762;28;20401;-66
2023/10/07 02:57:39;;;;;;;17.35;6.20;;;;;;;;;;5089343;28;20047;-67
2023/10/07 03:00:15;;;;;;;20.63;5.18;;;;;;;;;;5096709;28;20047;-66
2023/10/07 03:02:48;;;;;;;18.75;5.43;;;;;;;;;;5094245;28;20055;-66
2023/10/07 03:05:14;;;;;;;13.10;5.40;;;;;;;;;;5095643;28;20047;-66
2023/10/07 03:07:49;;;;;;;16.38;4.40;;;;;;;;;;5095041;28;20406;-70
2023/10/07 03:10:19;;;;;;;17.60;5.00;;;;;;;;;;5097688;28;20047;-67
2023/10/07 03:12:56;;;;;;;15.30;5.20;;;;;;;;;;5116607;28;20071;-70
2023/10/07 03:16:28;;;;;;;14.15;5.45;;;;;;;;;;5112076;28;20102;-66
2023/10/07 03:18:30;;;;;;;20.00;5.25;;;;;;;;;;5102012;23;20044;-72
2023/10/07 03:21:11;;;;;;;18.15;5.00;;;;;;;;;;5088063;28;20040;-71
2023/10/07 03:23:58;;;;;;;16.27;6.30;;;;;;;;;;5089702;28;20040;-71
2023/10/07 03:26:24;;;;;;;20.70;5.30;;;;;;;;;;5087692;28;20101;-71
2023/10/07 03:28:54;;;;;;;18.42;5.35;;;;;;;;;;5072264;28;20037;-71
2023/10/07 03:31:27;;;;;;;20.58;5.40;;;;;;;;;;5073308;28;20445;-71
2023/10/07 03:33:58;;;;;;;14.82;4.82;;;;;;;;;;5073057;28;20119;-71
2023/10/07 03:41:52;;;;;;;15.90;5.28;;;;;;;;;;5070813;28;20109;-71
2023/10/07 03:44:19;;;;;;;15.75;5.28;;;;;;;;;;5067558;28;20072;-71
2023/10/07 03:46:47;;;;;;;11.27;5.20;;;;;;;;;;5072135;28;20424;-71
2023/10/07 03:49:15;;;;;;;14.20;5.07;;;;;;;;;;5070710;28;20501;-71
2023/10/07 03:51:41;;;;;;;20.30;5.15;;;;;;;;;;5070260;28;20379;-72
2023/10/07 03:54:12;;;;;;;17.45;5.28;;;;;;;;;;5068647;28;20032;-72
2023/10/07 03:56:38;;;;;;;14.85;5.53;;;;;;;;;;5073052;28;20087;-72
2023/10/07 03:59:05;;;;;;;15.77;5.10;;;;;;;;;;5071127;28;20040;-72
2023/10/07 04:01:32;;;;;;;15.50;5.45;;;;;;;;;;5064638;28;20848;-72
2023/10/07 04:04:01;;;;;;;15.13;5.25;;;;;;;;;;5069805;28;20040;-72
2023/10/07 04:06:30;;;;;;;14.65;5.38;;;;;;;;;;5070930;28;20108;-72
2023/10/07 04:09:05;;;;;;;18.40;5.40;;;;;;;;;;5068627;28;20067;-72
2023/10/07 04:11:33;;;;;;;17.73;5.13;;;;;;;;;;5067907;28;20505;-72
2023/10/07 04:14:05;;;;;;;17.17;6.47;;;;;;;;;;5071392;28;20384;-72
2023/10/07 04:16:33;;;;;;;18.15;5.25;;;;;;;;;;5071133;28;20044;-71
2023/10/07 04:20:14;;;;;;;17.02;5.10;;;;;;;;;;5070224;28;20062;-71
2023/10/07 04:21:55;;;;;;;18.23;5.22;;;;;;;;;;5044129;28;20056;-71
2023/10/07 04:24:23;;;;;;;15.73;5.55;;;;;;;;;;5071733;28;20098;-71
2023/10/07 04:27:02;;;;;;;18.25;5.40;;;;;;;;;;5072459;28;20049;-71
2023/10/07 04:29:29;;;;;;;14.05;4.88;;;;;;;;;;5070737;28;20047;-71
2023/10/07 04:31:55;;;;;;;13.63;6.07;;;;;;;;;;5068608;28;20049;-71
2023/10/07 04:34:21;;;;;;;18.00;5.53;;;;;;;;;;5068011;28;20906;-71
2023/10/07 04:42:20;;;;;;;12.15;5.32;;;;;;;;;;5069883;28;20080;-71
2023/10/07 04:47:37;;;;;;;16.40;4.88;;;;;;;;;;5066665;28;20045;-71
2023/10/07 04:52:30;;;;;;;16.00;6.13;;;;;;;;;;5063264;28;20048;-71
2023/10/07 04:54:58;;;;;;;19.02;5.97;;;;;;;;;;5065954;28;20053;-71
2023/10/07 05:00:17;;;;;;;19.92;6.13;;;;;;;;;;5071798;28;20402;-71
2023/10/07 05:02:48;;;;;;;18.60;6.35;;;;;;;;;;5071136;28;20509;-71
2023/10/07 05:05:14;;;;;;;16.70;5.82;;;;;;;;;;5065177;28;21119;-71
2023/10/07 05:07:43;;;;;;;20.05;6.38;;;;;;;;;;5070136;28;20040;-71
2023/10/07 05:10:09;;;;;;;16.73;5.60;;;;;;;;;;5070605;28;20452;-71
2023/10/07 05:12:35;;;;;;;15.02;6.10;;;;;;;;;;5071869;28;20029;-71
2023/10/07 05:15:05;;;;;;;12.63;5.03;;;;;;;;;;5067400;28;20037;-71
2023/10/07 05:17:36;;;;;;;18.52;5.95;;;;;;;;;;5070399;28;20048;-71
2023/10/07 05:20:05;;;;;;;20.08;6.32;;;;;;;;;;5067557;28;20076;-71
2023/10/07 05:22:31;;;;;;;18.10;5.78;;;;;;;;;;5071339;28;20103;-71
2023/10/07 05:24:59;;;;;;;19.50;5.85;;;;;;;;;;5069327;28;20045;-71
2023/10/07 05:27:25;;;;;;;16.73;6.00;;;;;;;;;;5068380;28;20049;-71
2023/10/07 05:29:51;;;;;;;16.85;5.68;;;;;;;;;;5066856;28;20041;-71
2023/10/07 05:32:18;;;;;;;14.68;5.15;;;;;;;;;;5071265;28;20029;-71
2023/10/07 05:34:46;;;;;;;15.60;5.28;;;;;;;;;;5069579;28;20037;-71
2023/10/07 05:37:12;;;;;;;16.33;5.70;;;;;;;;;;5067928;28;20041;-71
2023/10/07 05:39:39;;;;;;;15.68;5.28;;;;;;;;;;5068253;28;20502;-71
2023/10/07 05:42:07;;;;;;;14.80;5.18;;;;;;;;;;5065368;28;20095;-71
2023/10/07 05:44:35;;;;;;;19.30;5.90;;;;;;;;;;5070952;28;20044;-71
2023/10/07 05:47:02;;;;;;;19.58;6.60;;;;;;;;;;5065691;28;20046;-71
2023/10/07 05:49:31;;;;;;;18.45;5.65;;;;;;;;;;5068782;28;20036;-71
2023/10/07 05:51:58;;;;;;;15.23;5.30;;;;;;;;;;5066135;28;20108;-71
2023/10/07 05:54:24;;;;;;;17.65;5.47;;;;;;;;;;5067373;28;20044;-71
2023/10/07 05:56:50;;;;;;;20.05;5.18;;;;;;;;;;5069073;28;20170;-71
2023/10/07 05:59:16;;;;;;;18.77;5.63;;;;;;;;;;5071089;28;20040;-71
2023/10/07 06:01:43;;;;;;;17.90;5.47;;;;;;;;;;5071362;28;20036;-71
2023/10/07 06:04:09;;;;;;;14.20;4.80;;;;;;;;;;5072464;28;20067;-71
2023/10/07 06:06:35;;;;;;;16.13;5.18;;;;;;;;;;5075036;28;20051;-71
2023/10/07 06:09:03;;;;;;;17.13;5.78;;;;;;;;;;5074793;28;20036;-71
2023/10/07 06:11:32;;;;;;;;;;;;;;;;;;5071912;28;20144;-71
2023/10/07 06:13:59;;;;;;;19.33;5.38;;;;;;;;;;5071821;28;19935;-71
2023/10/07 06:16:25;;;;;;;11.65;4.93;;;;;;;;;;5071765;28;20044;-71
2023/10/07 06:18:51;;;;;;;13.85;5.15;;;;;;;;;;5068633;28;20094;-71
2023/10/07 06:21:27;;;;;;;17.95;5.22;;;;;;;;;;5073111;28;20037;-71
2023/10/07 06:23:53;;;;;;;14.43;5.70;;;;;;;;;;5070299;28;20032;-71
2023/10/07 06:26:19;;;;;;;15.10;5.40;;;;;;;;;;5067780;28;20102;-70
2023/10/07 06:28:48;;;;;;;17.63;5.45;;;;;;;;;;5073702;28;20041;-70
2023/10/07 06:31:17;;;;;;;18.48;6.10;;;;;;;;;;5070196;28;20115;-71
2023/10/07 06:33:46;;;;;;;17.13;5.40;;;;;;;;;;5069478;28;20036;-71
2023/10/07 06:36:14;;;;;;;13.65;5.10;;;;;;;;;;5071189;28;20045;-71
2023/10/07 06:38:45;;;;;;;21.65;5.57;;;;;;;;;;5071490;28;20044;-71
2023/10/07 06:41:11;;;;;;;;;;;;;;;;;;5072635;28;20045;-71
2023/10/07 06:43:38;;;;;;;14.82;5.00;;;;;;;;;;5069874;28;19931;-71
2023/10/07 06:46:10;;;;;;;17.50;5.38;;;;;;;;;;5069708;28;20049;-71
2023/10/07 06:48:37;;;;;;;16.17;5.85;;;;;;;;;;5071927;28;20036;-71
2023/10/07 06:51:03;;;;;;;16.55;5.07;;;;;;;;;;5069645;28;20032;-71
2023/10/07 06:53:30;;;;;;;15.90;5.28;;;;;;;;;;5070227;28;20036;-71
2023/10/07 06:55:58;;;;;;;17.15;5.68;;;;;;;;;;5071012;28;20429;-71
2023/10/07 06:58:25;;;;;;;18.88;5.22;;;;;;;;;;5069643;28;20044;-71
2023/10/07 07:00:56;;;;;;;15.73;4.97;;;;;;;;;;5067768;28;20115;-71
2023/10/07 07:03:25;;;;;;;12.82;5.15;;;;;;;;;;5068779;28;20090;-71
2023/10/07 07:05:52;;;;;;;18.67;6.20;;;;;;;;;;5072871;28;20599;-71
2023/10/07 07:08:24;;;;;;;18.30;5.38;;;;;;;;;;5062907;28;20060;-71
2023/10/07 07:10:55;;;;;;;19.90;5.82;;;;;;;;;;5069057;28;20040;-71
2023/10/07 07:13:26;;;;;;;15.00;4.88;;;;;;;;;;5068583;28;20486;-70
2023/10/07 07:16:06;;;;;;;23.17;5.93;;;;;;;;;;5071048;28;20033;-70
2023/10/07 07:18:32;;;;;;;18.67;5.67;;;;;;;;;;5069601;28;20047;-70
2023/10/07 07:21:01;;;;;;;19.33;6.05;;;;;;;;;;5069929;28;20040;-70
2023/10/07 07:23:35;;;;;;;18.42;5.00;;;;;;;;;;5071270;28;20042;-70
2023/10/07 07:28:31;;;;;;;16.05;5.15;;;;;;;;;;5071572;28;20044;-70
2023/10/07 07:30:57;;;;;;;14.52;5.50;;;;;;;;;;5073235;28;20072;-70
2023/10/07 07:33:35;;;;;;;18.27;5.50;;;;;;;;;;5072634;28;20039;-70
2023/10/07 07:36:06;;;;;;;18.15;5.35;;;;;;;;;;5072631;28;20121;-70
2023/10/07 07:38:43;;;;;;;14.10;5.38;;;;;;;;;;5069202;28;20102;-70
2023/10/07 07:41:09;;;;;;;16.92;5.40;;;;;;;;;;5072743;28;20044;-70
2023/10/07 07:43:40;;;;;;;18.15;5.70;;;;;;;;;;5069927;28;20086;-70
2023/10/07 07:49:06;;;;;;;14.43;5.18;;;;;;;;;;5034114;28;20127;-70
2023/10/07 07:51:37;;;;;;;19.23;5.47;;;;;;;;;;5072571;28;20051;-70
2023/10/07 07:54:05;;;;;;;18.25;5.35;;;;;;;;;;5066037;28;20079;-70
2023/10/07 07:56:31;;;;;;;19.08;5.85;;;;;;;;;;5064718;28;20052;-70
2023/10/07 07:58:57;;;;;;;14.68;5.90;;;;;;;;;;5066628;28;20418;-70
2023/10/07 08:01:28;;;;;;;14.05;4.50;;;;;;;;;;5069907;28;20048;-70
2023/10/07 08:03:55;;;;;;;;;;;;;;;;;;5059225;28;20036;-70
2023/10/07 08:06:21;;;;;;;15.15;5.07;;;;;;;;;;5069174;28;19920;-70
2023/10/07 08:08:49;;;;;;;14.70;4.55;;;;;;;;;;5068576;28;20091;-70
2023/10/07 08:11:17;;;;;;;15.40;4.50;;;;;;;;;;5069034;28;20079;-70
2023/10/07 08:13:44;;;;;;;13.35;4.70;;;;;;;;;;5066969;28;20040;-70
2023/10/07 08:16:15;;;;;;;13.55;4.82;;;;;;;;;;5056399;28;20041;-70
2023/10/07 08:18:41;;;;;;;15.52;4.95;;;;;;;;;;5068321;28;20062;-70
2023/10/07 08:21:08;;;;;;;17.65;5.63;;;;;;;;;;5069825;28;20128;-70
2023/10/07 08:23:36;;;;;;;11.23;4.85;;;;;;;;;;5068832;28;20149;-70
2023/10/07 08:26:12;;;;;;;17.85;4.72;;;;;;;;;;5066313;28;20044;-70
2023/10/07 08:28:43;;;;;;;10.23;3.95;;;;;;;;;;5068775;28;20036;-70
2023/10/07 08:33:48;;;;;;;14.52;4.63;;;;;;;;;;5060358;28;20043;-70
2023/10/07 08:36:15;;;;;;;17.02;4.28;;;;;;;;;;5061587;28;20228;-70
2023/10/07 08:38:44;;;;;;;16.25;4.25;;;;;;;;;;5065507;28;20498;-70
2023/10/07 08:41:16;;;;;;;18.70;4.45;;;;;;;;;;5069663;28;20041;-70
2023/10/07 08:43:44;;;;;;;11.57;4.10;;;;;;;;;;5071318;28;20051;-70
2023/10/07 08:46:19;;;;;;;16.75;5.20;;;;;;;;;;5062971;28;20044;-70
2023/10/07 08:51:49;;;;;;;14.93;4.45;;;;;;;;;;5048392;28;20044;-71
2023/10/07 08:54:18;;;;;;;18.42;4.75;;;;;;;;;;5062906;28;20045;-71
2023/10/07 08:56:54;;;;;;;14.57;4.13;;;;;;;;;;5069814;28;20033;-71
2023/10/07 08:59:22;;;;;;;13.48;4.30;;;;;;;;;;5064086;28;20050;-71
2023/10/07 09:01:53;;;;;;;10.80;4.72;;;;;;;;;;5068448;28;20506;-71
2023/10/07 09:04:19;;;;;;;;;;;;;;;;;;5069872;28;20045;-71
2023/10/07 09:06:50;;;;;;;15.60;4.28;;;;;;;;;;5065717;28;20434;-71
2023/10/07 09:09:32;;;;;;;13.00;4.25;;;;;;;;;;5063855;28;20102;-71
2023/10/07 09:12:03;;;;;;;10.35;3.65;;;;;;;;;;5071668;28;20060;-71
2023/10/07 09:14:30;;;;;;;12.80;3.90;;;;;;;;;;5068728;28;20043;-71
2023/10/07 09:16:56;;;;;;;11.02;4.05;;;;;;;;;;5100086;22;20045;-68
2023/10/07 09:19:23;;;;;;;15.98;4.63;;;;;;;;;;5091343;28;20089;-68
2023/10/07 09:21:57;;;;;;;15.93;4.75;;;;;;;;;;5113087;27;20038;-68
2023/10/07 09:24:26;;;;;;;11.40;3.90;;;;;;;;;;5108234;28;20039;-69
2023/10/07 09:26:56;;;;;;;12.45;4.15;;;;;;;;;;5110821;28;20081;-69
2023/10/07 09:29:24;;;;;;;14.52;4.32;;;;;;;;;;5103655;28;20042;-69
2023/10/07 09:31:56;;;;;;;12.65;3.63;;;;;;;;;;5107739;28;20071;-69
2023/10/07 09:34:41;;;;;;;14.65;3.92;;;;;;;;;;5103069;28;20398;-69
2023/10/07 09:37:11;;;;;;;15.48;4.30;;;;;;;;;;5112054;28;20043;-69
2023/10/07 09:39:44;;;;;;;13.27;4.22;;;;;;;;;;5112596;28;20075;-69
2023/10/07 09:42:26;;;;;;;13.88;4.03;;;;;;;;;;5111178;28;20100;-69
2023/10/07 09:47:38;;;;;;;15.63;3.83;;;;;;;;;;5115198;28;20108;-69
2023/10/07 09:50:25;;;;;;;12.87;3.80;;;;;;;;;;5112294;28;20067;-69
2023/10/07 09:52:56;;;;;;;10.40;3.97;;;;;;;;;;5114997;28;20285;-69
2023/10/07 09:55:22;;;;;;;;;;;;;;;;;;5113584;28;20040;-69
2023/10/07 09:57:55;;;;;;;13.75;3.85;;;;;;;;;;5115006;28;19919;-69
2023/10/07 10:03:06;;;;;;;9.20;3.72;;;;;;;;;;5114517;28;20046;-69
2023/10/07 10:05:49;;;;;;;11.90;3.45;;;;;;;;;;5113691;28;20070;-69
2023/10/07 10:08:19;;;;;;;15.55;3.85;;;;;;;;;;5114792;28;20481;-69
2023/10/07 10:10:51;;;;;;;13.93;3.97;;;;;;;;;;5112325;28;20106;-69
2023/10/07 10:13:28;;;;;;;12.82;3.72;;;;;;;;;;5089063;28;20046;-69
2023/10/07 10:15:59;;;;;;;16.08;3.55;;;;;;;;;;5091017;28;20439;-69
2023/10/07 10:18:38;;;;;;;11.23;3.83;;;;;;;;;;5090085;28;20127;-69
2023/10/07 10:21:05;;;;;;;14.35;3.95;;;;;;;;;;5109469;28;20075;-69
2023/10/07 10:23:34;;;;;;;11.95;3.28;;;;;;;;;;5111463;28;20045;-69
2023/10/07 10:26:14;;;;;;;12.75;3.45;;;;;;;;;;5096743;28;20095;-69
2023/10/07 10:28:41;;;;;;;13.30;3.58;;;;;;;;;;5110594;28;20039;-69
2023/10/07 10:31:18;;;;;;;14.88;3.67;;;;;;;;;;5109958;27;20067;-69
2023/10/07 10:33:49;;;;;;;13.93;4.63;;;;;;;;;;5108111;28;20032;-69
2023/10/07 10:36:16;;;;;;;11.95;3.70;;;;;;;;;;5113214;28;20093;-69
2023/10/07 10:38:45;;;;;;;14.52;3.70;;;;;;;;;;5101882;28;20393;-69
2023/10/07 10:41:11;;;;;;;10.13;3.38;;;;;;;;;;5112949;28;20048;-69
2023/10/07 10:43:37;;;;;;;17.63;4.22;;;;;;;;;;5109765;28;20040;-69
2023/10/07 10:46:07;;;;;;;15.02;4.13;;;;;;;;;;5105123;28;20039;-69
2023/10/07 10:48:34;;;;;;;14.50;4.10;;;;;;;;;;5109972;28;20172;-69
2023/10/07 10:51:05;;;;;;;14.32;3.90;;;;;;;;;;5106487;28;20531;-69
2023/10/07 10:53:31;;;;;;;18.35;4.35;;;;;;;;;;5109649;28;20092;-69
2023/10/07 10:55:57;;;;;;;10.98;3.67;;;;;;;;;;5108849;28;20031;-69
2023/10/07 10:58:23;;;;;;;15.00;4.18;;;;;;;;;;5107842;28;20400;-69
2023/10/07 11:00:52;;;;;;;13.30;4.05;;;;;;;;;;5110372;28;20047;-69
2023/10/07 11:03:21;;;;;;;10.75;4.07;;;;;;;;;;5112528;28;20485;-69
2023/10/07 11:05:56;;;;;;;13.43;4.40;;;;;;;;;;5091506;28;20050;-69
2023/10/07 11:08:23;;;;;;;15.75;3.78;;;;;;;;;;5109071;28;20044;-69
2023/10/07 11:10:53;;;;;;;14.85;4.18;;;;;;;;;;5089247;28;20039;-69
2023/10/07 11:13:20;;;;;;;13.65;3.95;;;;;;;;;;5112437;28;20028;-69
2023/10/07 11:16:09;;;;;;;9.40;3.67;;;;;;;;;;5089400;28;20039;-69
2023/10/07 11:18:37;;;;;;;16.02;4.07;;;;;;;;;;5106406;28;20217;-69
2023/10/07 11:21:05;;;;;;;12.20;4.07;;;;;;;;;;5108077;28;20497;-70
2023/10/07 11:23:32;;;;;;;13.07;3.85;;;;;;;;;;5108774;28;20047;-70
2023/10/07 11:25:58;;;;;;;13.38;3.67;;;;;;;;;;5110503;28;20039;-70
2023/10/07 11:28:26;;;;;;;9.38;4.50;;;;;;;;;;5093842;28;20089;-70
2023/10/07 11:30:52;;;;;;;14.00;4.25;;;;;;;;;;5111475;28;20394;-70
2023/10/07 11:33:19;;;;;;;13.88;4.30;;;;;;;;;;5113664;28;20379;-70
2023/10/07 11:36:06;;;;;;;13.68;4.40;;;;;;;;;;5105634;28;20047;-70
2023/10/07 11:38:33;;;;;;;14.70;4.18;;;;;;;;;;5106641;28;20035;-70
2023/10/07 11:41:00;;;;;;;12.07;3.95;;;;;;;;;;5105266;28;20079;-70
2023/10/07 11:43:29;;;;;;;11.77;4.35;;;;;;;;;;5107653;28;20043;-70
2023/10/07 11:45:55;;;;;;;13.57;4.60;;;;;;;;;;5108768;28;20063;-70
2023/10/07 11:48:21;;;;;;;15.25;4.22;;;;;;;;;;5108398;28;20059;-70
2023/10/07 11:50:47;;;;;;;16.27;4.32;;;;;;;;;;5110401;28;20031;-70
2023/10/07 11:53:14;;;;;;;9.95;3.90;;;;;;;;;;5106637;28;20579;-70
2023/10/07 11:55:40;;;;;;;16.40;4.60;;;;;;;;;;5108359;28;20043;-69
2023/10/07 11:58:07;;;;;;;9.60;3.67;;;;;;;;;;5087742;28;20043;-69
2023/10/07 12:00:36;;;;;;;15.82;3.88;;;;;;;;;;5111938;28;20485;-69
2023/10/07 12:03:06;;;;;;;11.63;4.18;;;;;;;;;;5109080;28;20043;-69
2023/10/07 12:05:33;;;;;;;14.87;4.20;;;;;;;;;;5108643;28;20069;-69
2023/10/07 12:08:01;;;;;;;13.68;4.45;;;;;;;;;;5112146;28;20489;-69
2023/10/07 12:10:33;;;;;;;12.10;4.47;;;;;;;;;;5111502;28;20031;-69
2023/10/07 12:12:59;;;;;;;14.77;4.45;;;;;;;;;;5105969;28;20044;-70
2023/10/07 12:15:25;;;;;;;13.15;4.18;;;;;;;;;;5105909;28;20457;-70
2023/10/07 12:17:51;;;;;;;10.13;4.00;;;;;;;;;;5106170;28;20043;-70
2023/10/07 12:20:22;;;;;;;14.57;4.28;;;;;;;;;;5106243;28;20040;-70
2023/10/07 12:22:48;;;;;;;;;;;;;;;;;;5109773;28;20031;-70
2023/10/07 12:25:16;;;;;;;11.45;3.90;;;;;;;;;;5090578;28;19915;-70
2023/10/07 12:27:45;;;;;;;15.55;5.28;;;;;;;;;;5109716;28;20042;-70
2023/10/07 12:30:11;;;;;;;16.83;4.57;;;;;;;;;;5109695;28;20039;-70
2023/10/07 12:32:42;;;;;;;12.68;3.97;;;;;;;;;;5111687;28;20645;-70
2023/10/07 12:35:09;;;;;;;13.38;4.47;;;;;;;;;;5110951;28;20043;-70
2023/10/07 12:37:38;;;;;;;14.73;4.50;;;;;;;;;;5111395;28;20061;-70
2023/10/07 12:40:05;;;;;;;13.35;4.47;;;;;;;;;;5105573;28;20043;-70
2023/10/07 12:42:32;;;;;;;16.45;4.38;;;;;;;;;;5112560;28;20047;-70
2023/10/07 12:45:01;;;;;;;13.27;4.50;;;;;;;;;;5109982;28;20046;-70
2023/10/07 12:47:29;;;;;;;12.40;4.55;;;;;;;;;;5111356;28;20408;-70
2023/10/07 12:49:55;;;;;;;12.70;4.05;;;;;;;;;;5110801;28;20119;-70
2023/10/07 12:52:24;;;;;;;9.50;3.65;;;;;;;;;;5104490;28;20032;-70
2023/10/07 12:54:50;;;;;;;12.63;4.25;;;;;;;;;;5110172;28;20036;-70
2023/10/07 12:57:16;;;;;;;11.93;4.32;;;;;;;;;;5109887;28;20028;-70
2023/10/07 12:59:42;;;;;;;10.05;5.05;;;;;;;;;;5111540;28;20083;-70
2023/10/07 13:02:17;;;;;;;10.93;4.25;;;;;;;;;;5108722;28;20043;-70
2023/10/07 13:04:44;;;;;;;12.75;4.22;;;;;;;;;;5108208;28;20036;-70
2023/10/07 13:07:10;;;;;;;12.00;3.88;;;;;;;;;;5107223;28;20040;-70
2023/10/07 13:09:40;;;;;;;12.10;4.38;;;;;;;;;;5104500;28;20028;-70
2023/10/07 13:12:13;;;;;;;10.65;4.70;;;;;;;;;;5110356;28;20096;-70
2023/10/07 13:14:45;;;;;;;13.57;4.47;;;;;;;;;;5111345;28;20054;-70
2023/10/07 13:17:13;;;;;;;12.02;4.20;;;;;;;;;;5109712;28;20039;-70
2023/10/07 13:19:40;;;;;;;10.43;4.15;;;;;;;;;;5107459;28;20040;-70
2023/10/07 13:22:06;;;;;;;14.25;5.22;;;;;;;;;;5106294;28;20508;-70
2023/10/07 13:24:32;;;;;;;12.32;4.32;;;;;;;;;;5107782;28;20032;-70
2023/10/07 13:26:59;;;;;;;14.35;4.57;;;;;;;;;;5107724;28;20104;-70
2023/10/07 13:29:24;;;;;;;14.90;4.45;;;;;;;;;;5112133;28;20047;-70
2023/10/07 13:31:52;;;;;;;11.10;4.85;;;;;;;;;;5108247;28;20028;-70
2023/10/07 13:34:19;;;;;;;16.33;5.35;;;;;;;;;;5111416;28;20389;-69
2023/10/07 13:36:45;;;;;;;11.55;4.80;;;;;;;;;;5106565;28;20044;-69
2023/10/07 13:39:17;;;;;;;13.70;4.60;;;;;;;;;;5105409;28;20044;-70
2023/10/07 13:41:47;;;;;;;10.07;3.92;;;;;;;;;;5109862;28;20027;-70
2023/10/07 13:44:14;;;;;;;9.77;4.50;;;;;;;;;;5107976;28;20081;-70
2023/10/07 13:46:41;;;;;;;13.82;4.65;;;;;;;;;;5090424;28;20036;-70
2023/10/07 13:49:09;;;;;;;12.23;4.75;;;;;;;;;;5107214;28;20040;-70
2023/10/07 13:51:40;;;;;;;11.48;4.95;;;;;;;;;;5108721;28;20070;-70
2023/10/07 13:54:22;;;;;;;14.10;5.15;;;;;;;;;;5111719;28;20485;-70
2023/10/07 13:56:53;;;;;;;14.90;4.65;;;;;;;;;;5103740;28;20035;-70
2023/10/07 13:59:19;;;;;;;16.50;4.55;;;;;;;;;;5106557;28;20039;-70
2023/10/07 14:01:46;;;;;;;13.20;4.40;;;;;;;;;;5101965;28;20050;-70
2023/10/07 14:04:15;;;;;;;14.10;4.70;;;;;;;;;;5105860;28;20096;-70
2023/10/07 14:06:41;;;;;;;16.95;5.40;;;;;;;;;;5107002;28;20511;-70
2023/10/07 14:09:15;;;;;;;10.45;4.32;;;;;;;;;;5108531;28;20118;-70
2023/10/07 14:11:46;;;;;;;11.27;4.63;;;;;;;;;;5105541;28;20039;-70
2023/10/07 14:14:13;;;;;;;12.68;4.32;;;;;;;;;;5093208;28;20127;-70
2023/10/07 14:16:40;;;;;;;12.93;4.47;;;;;;;;;;5108479;28;20039;-72
2023/10/07 14:19:06;;;;;;;9.10;3.92;;;;;;;;;;5107752;28;20049;-70
2023/10/07 14:21:32;;;;;;;11.75;4.32;;;;;;;;;;5111000;28;20115;-70
2023/10/07 14:24:04;;;;;;;13.88;4.45;;;;;;;;;;5106614;28;20092;-70
2023/10/07 14:26:34;;;;;;;15.02;4.95;;;;;;;;;;5109156;27;20054;-70
2023/10/07 14:29:07;;;;;;;11.37;5.53;;;;;;;;;;5111667;28;20089;-70
2023/10/07 14:31:33;;;;;;;14.27;4.90;;;;;;;;;;5096116;28;20297;-70
2023/10/07 14:34:04;;;;;;;13.00;4.93;;;;;;;;;;5104328;28;20040;-70
2023/10/07 14:36:30;;;;;;;13.02;4.75;;;;;;;;;;5108187;28;20595;-70
2023/10/07 14:38:56;;;;;;;12.23;5.53;;;;;;;;;;5109854;28;20043;-70
2023/10/07 14:41:22;;;;;;;13.55;4.82;;;;;;;;;;5076050;28;20039;-70
2023/10/07 14:43:48;;;;;;;11.85;4.88;;;;;;;;;;5108804;28;20519;-70
2023/10/07 14:46:14;;;;;;;11.70;4.50;;;;;;;;;;5114626;28;20067;-71
2023/10/07 14:48:42;;;;;;;13.18;5.05;;;;;;;;;;5110898;28;20082;-70
2023/10/07 14:51:09;;;;;;;10.00;4.80;;;;;;;;;;5107734;28;20048;-71
2023/10/07 14:53:35;;;;;;;16.70;5.30;;;;;;;;;;5113658;28;20096;-71
2023/10/07 14:56:08;;;;;;;11.70;5.22;;;;;;;;;;5110123;28;20515;-70
2023/10/07 14:58:36;;;;;;;15.25;5.78;;;;;;;;;;5113459;28;20031;-70
2023/10/07 15:01:03;;;;;;;12.20;5.65;;;;;;;;;;5113424;28;20047;-70
2023/10/07 15:03:29;;;;;;;12.55;4.72;;;;;;;;;;5110732;28;20038;-71
2023/10/07 15:05:56;;;;;;;16.52;5.53;;;;;;;;;;5110606;28;20082;-71
2023/10/07 15:08:23;;;;;;;12.10;5.10;;;;;;;;;;5113482;28;20044;-71
2023/10/07 15:10:50;;;;;;;15.23;5.35;;;;;;;;;;5112161;28;20040;-71
2023/10/07 15:13:16;;;;;;;16.98;5.72;;;;;;;;;;5111892;28;20542;-71
2023/10/07 15:15:45;;;;;;;16.73;5.72;;;;;;;;;;5113571;28;21037;-71
2023/10/07 15:18:12;;;;;;;14.02;5.90;;;;;;;;;;5127544;22;20521;-72
2023/10/07 15:20:38;;;;;;;14.88;5.68;;;;;;;;;;5111236;28;20035;-73
2023/10/07 15:23:05;;;;;;;17.58;6.60;;;;;;;;;;5110840;27;20039;-72
2023/10/07 15:25:31;;;;;;;12.25;5.28;;;;;;;;;;5112150;28;20485;-72